Terminal Aerodrome Forecast
Issued by NWS

Home | Current Version | Previous Version | Text Only | Print | Product List | Glossary On
Versions: 1 2 3 4 5 6 7 8 9 10 11 12 13
000
FTUS45 KGGW 241722
TAFSDY
TAF
KSDY 241722Z 2418/2518 16008KT P6SM BKN040 OVC090
     FM250200 00000KT P6SM SCT050 BKN060
     FM250600 VRB03KT 6SM -SN OVC040
     FM251300 VRB03KT P6SM VCSH BKN025 OVC027=

USA.gov is the U.S. government's official web portal to all federal, state and local government web resources and services.